createdAt,value
2022-10-15T00:01:30.032Z,12.40
2022-10-15T00:03:58.303Z,12.40
2022-10-15T00:06:26.514Z,12.40
2022-10-15T00:08:56.026Z,12.60
2022-10-15T00:11:27.015Z,12.60
2022-10-15T00:13:55.931Z,12.40
2022-10-15T00:16:25.804Z,12.20
2022-10-15T00:18:56.252Z,12.20
2022-10-15T00:21:24.386Z,12.20
2022-10-15T00:23:52.420Z,12.30
2022-10-15T00:26:23.675Z,12.30
2022-10-15T00:28:55.690Z,12.30
2022-10-15T00:31:26.977Z,12.20
2022-10-15T00:33:56.047Z,12.30
2022-10-15T00:36:25.822Z,12.20
2022-10-15T00:38:54.602Z,12.10
2022-10-15T00:41:28.218Z,12.10
2022-10-15T00:43:58.123Z,12.30
2022-10-15T00:46:31.759Z,12.20
2022-10-15T00:51:38.910Z,12.30
2022-10-15T00:54:08.411Z,12.20
2022-10-15T00:56:38.830Z,12.20
2022-10-15T00:59:07.830Z,12.10
2022-10-15T01:01:36.936Z,12.00
2022-10-15T01:04:06.840Z,12.00
2022-10-15T01:06:35.461Z,12.00
2022-10-15T01:09:04.837Z,12.00
2022-10-15T01:11:41.688Z,12.10
2022-10-15T01:14:26.338Z,12.10
2022-10-15T01:16:58.576Z,12.10
2022-10-15T01:19:42.276Z,12.30
2022-10-15T01:22:17.241Z,12.30
2022-10-15T01:25:05.288Z,12.20
2022-10-15T01:27:37.916Z,12.10
2022-10-15T01:30:26.207Z,12.10
2022-10-15T01:33:10.281Z,12.20
2022-10-15T01:35:47.458Z,12.30
2022-10-15T01:38:28.654Z,12.20
2022-10-15T01:41:00.950Z,12.30
2022-10-15T01:43:35.272Z,12.30
2022-10-15T01:46:31.427Z,12.30
2022-10-15T01:49:07.901Z,12.50
2022-10-15T01:51:40.382Z,12.50
2022-10-15T01:54:12.375Z,12.40
2022-10-15T01:56:41.799Z,12.30
2022-10-15T01:59:11.318Z,12.20
2022-10-15T02:01:44.458Z,12.20
2022-10-15T02:04:20.775Z,12.20
2022-10-15T02:06:53.954Z,12.10
2022-10-15T02:09:30.907Z,12.00
2022-10-15T02:12:10.597Z,12.00
2022-10-15T02:14:47.437Z,11.90
2022-10-15T02:17:19.578Z,12.10
2022-10-15T02:19:53.509Z,11.90
2022-10-15T02:22:26.243Z,12.10
2022-10-15T02:24:58.114Z,11.90
2022-10-15T02:27:28.077Z,12.00
2022-10-15T02:29:57.917Z,11.90
2022-10-15T02:32:29.563Z,12.00
2022-10-15T02:34:58.613Z,12.00
2022-10-15T02:37:28.796Z,12.00
2022-10-15T02:39:57.280Z,12.00
2022-10-15T02:42:26.236Z,11.90
2022-10-15T02:44:54.789Z,11.90
2022-10-15T02:47:22.887Z,11.90
2022-10-15T02:49:52.250Z,11.90
2022-10-15T02:52:20.872Z,11.90
2022-10-15T02:54:49.225Z,12.00
2022-10-15T02:57:18.188Z,11.90
2022-10-15T02:59:47.115Z,11.70
2022-10-15T03:02:18.379Z,11.80
2022-10-15T03:04:48.041Z,11.80
2022-10-15T03:07:17.917Z,11.80
2022-10-15T03:09:46.120Z,11.80
2022-10-15T03:12:15.802Z,11.70
2022-10-15T03:14:44.006Z,11.70
2022-10-15T03:17:12.069Z,11.70
2022-10-15T03:19:40.979Z,11.70
2022-10-15T03:22:09.171Z,11.70
2022-10-15T03:24:46.846Z,11.80
2022-10-15T03:27:15.389Z,11.70
2022-10-15T03:29:43.626Z,11.70
2022-10-15T03:32:12.353Z,11.70
2022-10-15T03:34:40.693Z,11.70
2022-10-15T03:37:11.012Z,11.70
2022-10-15T03:39:39.438Z,11.80
2022-10-15T03:42:10.643Z,11.70
2022-10-15T03:44:46.103Z,11.70
2022-10-15T03:47:17.657Z,11.70
2022-10-15T03:49:50.163Z,11.70
2022-10-15T03:52:18.675Z,11.70
2022-10-15T03:54:48.320Z,11.70
2022-10-15T03:57:21.017Z,11.70
2022-10-15T03:59:56.862Z,11.60
2022-10-15T04:02:28.056Z,11.70
2022-10-15T04:04:57.814Z,11.70
2022-10-15T04:07:26.397Z,11.60
2022-10-15T04:09:54.501Z,11.70
2022-10-15T04:12:43.010Z,11.70
2022-10-15T04:15:15.662Z,11.70
2022-10-15T04:17:54.516Z,11.70
2022-10-15T04:20:23.815Z,11.70
2022-10-15T04:22:51.806Z,11.70
2022-10-15T04:25:19.983Z,11.70
2022-10-15T04:27:49.341Z,11.70
2022-10-15T04:30:19.498Z,11.70
2022-10-15T04:32:56.293Z,11.80
2022-10-15T04:35:24.913Z,11.80
2022-10-15T04:38:06.293Z,11.80
2022-10-15T04:41:00.478Z,11.80
2022-10-15T04:43:35.317Z,11.80
2022-10-15T04:46:09.625Z,11.80
2022-10-15T04:48:42.874Z,11.80
2022-10-15T04:51:15.687Z,11.80
2022-10-15T04:54:01.673Z,11.90
2022-10-15T04:56:31.279Z,11.90
2022-10-15T04:59:00.727Z,11.90
2022-10-15T05:01:32.595Z,12.00
2022-10-15T05:04:06.519Z,12.10
2022-10-15T05:06:35.420Z,12.20
2022-10-15T05:09:16.550Z,12.30
2022-10-15T05:11:50.139Z,12.30
2022-10-15T05:14:19.946Z,12.40
2022-10-15T05:17:03.634Z,12.40
2022-10-15T05:19:36.943Z,12.50
2022-10-15T05:22:05.172Z,12.50
2022-10-15T05:24:35.054Z,12.50
2022-10-15T05:27:13.855Z,12.60
2022-10-15T05:29:43.256Z,12.70
2022-10-15T05:32:11.582Z,12.90
2022-10-15T05:34:40.977Z,12.90
2022-10-15T05:37:14.517Z,12.90
2022-10-15T05:39:43.587Z,12.90
2022-10-15T05:42:12.750Z,13.10
2022-10-15T05:44:48.170Z,13.10
2022-10-15T05:47:16.293Z,13.10
2022-10-15T05:49:44.506Z,13.10
2022-10-15T05:52:17.617Z,13.10
2022-10-15T05:55:04.643Z,13.20
2022-10-15T05:57:32.804Z,13.20
2022-10-15T06:00:07.284Z,13.10
2022-10-15T06:02:41.290Z,13.20
2022-10-15T06:05:09.605Z,13.20
2022-10-15T06:07:38.181Z,13.30
2022-10-15T06:10:07.025Z,13.20
2022-10-15T06:12:35.265Z,13.30
2022-10-15T06:15:03.342Z,13.30
2022-10-15T06:17:32.828Z,13.30
2022-10-15T06:20:00.919Z,13.30
2022-10-15T06:22:31.922Z,13.30
2022-10-15T06:25:00.104Z,13.30
2022-10-15T06:27:29.316Z,13.50
2022-10-15T06:29:57.414Z,13.50
2022-10-15T06:32:25.493Z,13.50
2022-10-15T06:34:54.908Z,13.50
2022-10-15T06:37:23.225Z,13.60
2022-10-15T06:39:52.459Z,13.70
2022-10-15T06:42:20.531Z,13.70
2022-10-15T06:44:49.351Z,13.70
2022-10-15T06:47:18.301Z,13.70
2022-10-15T06:49:48.618Z,13.70
2022-10-15T06:52:18.120Z,13.80
2022-10-15T06:54:46.287Z,13.70
2022-10-15T06:57:15.170Z,13.60
2022-10-15T06:59:43.408Z,13.60
2022-10-15T07:02:12.017Z,13.60
2022-10-15T07:04:40.150Z,13.60
2022-10-15T07:07:08.222Z,13.70
2022-10-15T07:09:37.663Z,13.70
2022-10-15T07:12:06.549Z,13.80
2022-10-15T07:14:38.689Z,13.90
2022-10-15T07:17:09.598Z,13.90
2022-10-15T07:19:37.830Z,13.90
2022-10-15T07:22:05.880Z,13.90
2022-10-15T07:24:33.994Z,13.90
2022-10-15T07:27:07.972Z,13.90
2022-10-15T07:29:45.231Z,14.00
2022-10-15T07:32:13.304Z,14.00
2022-10-15T07:34:41.505Z,14.10
2022-10-15T07:37:09.840Z,14.10
2022-10-15T07:39:40.839Z,14.20
2022-10-15T07:44:44.253Z,14.40
2022-10-15T07:47:12.491Z,14.30
2022-10-15T07:49:40.552Z,14.30
2022-10-15T07:52:09.565Z,14.30
2022-10-15T07:54:37.838Z,14.40
2022-10-15T07:57:07.023Z,14.40
2022-10-15T07:59:36.480Z,14.40
2022-10-15T08:02:04.581Z,14.40
2022-10-15T08:04:34.958Z,14.20
2022-10-15T08:07:05.719Z,14.20
2022-10-15T08:09:36.070Z,14.10
2022-10-15T08:12:06.199Z,14.00
2022-10-15T08:14:34.312Z,14.00
2022-10-15T08:17:04.654Z,14.00
2022-10-15T08:19:33.064Z,14.10
2022-10-15T08:22:01.205Z,14.10
2022-10-15T08:24:30.182Z,14.20
2022-10-15T08:26:58.671Z,14.10
2022-10-15T08:29:26.783Z,14.10
2022-10-15T08:31:54.916Z,14.00
2022-10-15T08:34:26.294Z,14.20
2022-10-15T08:36:54.354Z,14.30
2022-10-15T08:39:22.536Z,14.40
2022-10-15T08:41:54.274Z,14.40
2022-10-15T08:44:26.289Z,14.40
2022-10-15T08:46:57.811Z,14.40
2022-10-15T08:49:42.852Z,14.40
2022-10-15T08:52:21.192Z,14.20
2022-10-15T08:54:49.343Z,14.20
2022-10-15T08:57:31.164Z,14.20
2022-10-15T09:00:06.551Z,14.30
2022-10-15T09:02:40.920Z,14.30
2022-10-15T09:05:29.371Z,14.40
2022-10-15T09:08:04.033Z,14.00
2022-10-15T09:10:40.531Z,13.90
2022-10-15T09:13:16.233Z,13.80
2022-10-15T09:15:51.716Z,14.00
2022-10-15T09:18:24.471Z,13.90
2022-10-15T09:20:54.859Z,13.90
2022-10-15T09:23:25.037Z,13.90
2022-10-15T09:25:59.626Z,13.90
2022-10-15T09:28:38.085Z,14.00
2022-10-15T09:31:09.601Z,14.20
2022-10-15T09:33:41.080Z,14.10
2022-10-15T09:36:34.785Z,14.30
2022-10-15T09:39:21.727Z,14.40
2022-10-15T09:41:59.334Z,14.50
2022-10-15T09:44:39.874Z,14.60
2022-10-15T09:47:18.057Z,14.70
2022-10-15T09:49:46.189Z,14.70
2022-10-15T09:52:22.473Z,14.80
2022-10-15T09:55:02.757Z,14.90
2022-10-15T09:57:32.269Z,15.00
2022-10-15T10:00:02.975Z,15.10
2022-10-15T10:02:40.413Z,15.10
2022-10-15T10:05:28.772Z,15.20
2022-10-15T10:08:11.912Z,15.20
2022-10-15T10:10:43.025Z,15.30
2022-10-15T10:13:24.814Z,15.30
2022-10-15T10:15:58.405Z,15.40
2022-10-15T10:18:28.223Z,15.50
2022-10-15T10:20:59.676Z,15.60
2022-10-15T10:23:35.899Z,15.70
2022-10-15T10:26:06.030Z,15.70
2022-10-15T10:28:43.417Z,15.80
2022-10-15T10:31:13.341Z,15.90
2022-10-15T10:33:47.643Z,16.00
2022-10-15T10:36:25.768Z,16.30
2022-10-15T10:39:01.667Z,16.40
2022-10-15T10:41:51.632Z,16.60
2022-10-15T10:44:22.975Z,16.80
2022-10-15T10:47:05.629Z,17.10
2022-10-15T10:49:35.010Z,17.20
2022-10-15T10:52:03.761Z,17.30
2022-10-15T10:54:34.318Z,17.50
2022-10-15T10:57:02.590Z,17.50
2022-10-15T10:59:36.830Z,17.40
2022-10-15T11:02:06.455Z,17.50
2022-10-15T11:04:37.122Z,17.50
2022-10-15T11:07:07.703Z,17.50
2022-10-15T11:09:51.126Z,17.70
2022-10-15T11:12:36.147Z,17.80
2022-10-15T11:15:18.864Z,18.20
2022-10-15T11:17:53.156Z,18.30
2022-10-15T11:20:46.229Z,18.20
2022-10-15T11:23:28.713Z,18.50
2022-10-15T11:26:05.867Z,18.50
2022-10-15T11:28:47.543Z,18.60
2022-10-15T11:31:24.512Z,18.40
2022-10-15T11:34:07.426Z,18.40
2022-10-15T11:36:46.071Z,18.30
2022-10-15T11:39:33.939Z,18.30
2022-10-15T11:42:14.108Z,18.50
2022-10-15T11:44:58.637Z,18.30
2022-10-15T11:47:43.315Z,18.20
2022-10-15T11:50:20.615Z,18.00
2022-10-15T11:53:18.479Z,18.20
2022-10-15T11:55:52.099Z,18.20
2022-10-15T11:58:30.128Z,18.50
2022-10-15T12:01:01.363Z,18.50
2022-10-15T12:03:36.022Z,18.40
2022-10-15T12:06:10.141Z,18.10
2022-10-15T12:08:43.782Z,18.10
2022-10-15T12:11:27.589Z,18.20
2022-10-15T12:14:02.913Z,17.90
2022-10-15T12:16:38.020Z,17.90
2022-10-15T12:19:16.154Z,17.90
2022-10-15T12:22:00.860Z,18.10
2022-10-15T12:24:53.440Z,18.30
2022-10-15T12:27:35.548Z,18.40
2022-10-15T12:30:23.668Z,18.40
2022-10-15T12:32:53.753Z,18.40
2022-10-15T12:35:30.041Z,18.30
2022-10-15T12:38:22.191Z,18.50
2022-10-15T12:40:58.538Z,18.70
2022-10-15T12:43:27.783Z,19.20
2022-10-15T12:46:00.311Z,19.00
2022-10-15T12:48:38.460Z,18.50
2022-10-15T12:51:42.902Z,18.30
2022-10-15T12:54:34.056Z,18.30
2022-10-15T12:57:04.700Z,18.00
2022-10-15T12:59:58.151Z,18.30
2022-10-15T13:02:38.941Z,18.80
2022-10-15T13:05:09.380Z,18.40
2022-10-15T13:07:41.574Z,18.90
2022-10-15T13:10:21.703Z,18.80
2022-10-15T13:12:55.026Z,19.00
2022-10-15T13:15:26.996Z,19.00
2022-10-15T13:17:58.834Z,19.20
2022-10-15T13:20:34.316Z,19.50
2022-10-15T13:23:29.176Z,19.80
2022-10-15T13:26:18.329Z,19.80
2022-10-15T13:28:47.539Z,20.10
2022-10-15T13:31:27.604Z,19.70
2022-10-15T13:34:03.898Z,19.50
2022-10-15T13:36:34.177Z,18.90
2022-10-15T13:39:05.617Z,18.80
2022-10-15T13:41:37.715Z,18.90
2022-10-15T13:44:05.960Z,18.80
2022-10-15T13:46:39.623Z,18.90
2022-10-15T13:49:14.161Z,18.70
2022-10-15T13:51:44.670Z,18.60
2022-10-15T13:54:17.360Z,19.20
2022-10-15T13:56:51.549Z,19.40
2022-10-15T13:59:21.012Z,18.60
2022-10-15T14:01:50.690Z,18.30
2022-10-15T14:04:22.688Z,18.40
2022-10-15T14:09:34.847Z,19.30
2022-10-15T14:12:05.684Z,18.90
2022-10-15T14:14:36.244Z,19.20
2022-10-15T14:17:07.434Z,19.50
2022-10-15T14:19:39.208Z,19.30
2022-10-15T14:22:07.551Z,18.90
2022-10-15T14:24:37.029Z,19.50
2022-10-15T14:27:08.541Z,19.60
2022-10-15T14:29:40.879Z,19.10
2022-10-15T14:32:24.132Z,18.70
2022-10-15T14:34:54.487Z,18.50
2022-10-15T14:37:41.976Z,18.40
2022-10-15T14:40:21.579Z,18.20
2022-10-15T14:43:03.268Z,18.30
2022-10-15T14:45:33.023Z,18.20
2022-10-15T14:48:04.113Z,18.20
2022-10-15T14:50:34.954Z,18.40
2022-10-15T14:53:09.191Z,18.30
2022-10-15T14:55:40.616Z,18.40
2022-10-15T14:58:10.467Z,18.40
2022-10-15T15:00:42.870Z,18.30
2022-10-15T15:03:16.050Z,18.20
2022-10-15T15:05:49.795Z,18.10
2022-10-15T15:08:18.215Z,18.10
2022-10-15T15:13:22.920Z,17.80
2022-10-15T15:15:51.313Z,18.20
2022-10-15T15:18:20.729Z,18.30
2022-10-15T15:20:51.736Z,18.90
2022-10-15T15:23:22.059Z,18.80
2022-10-15T15:25:50.417Z,19.10
2022-10-15T15:28:20.927Z,18.80
2022-10-15T15:30:58.231Z,18.30
2022-10-15T15:33:28.131Z,17.90
2022-10-15T15:36:03.197Z,17.60
2022-10-15T15:38:31.724Z,17.50
2022-10-15T15:41:04.861Z,17.40
2022-10-15T15:43:33.097Z,17.30
2022-10-15T15:46:01.186Z,17.20
2022-10-15T15:48:29.375Z,17.20
2022-10-15T15:51:02.309Z,17.10
2022-10-15T15:53:30.352Z,17.10
2022-10-15T15:55:58.425Z,17.00
2022-10-15T15:58:26.549Z,17.20
2022-10-15T16:00:54.588Z,17.00
2022-10-15T16:03:22.602Z,16.90
2022-10-15T16:08:25.560Z,17.00
2022-10-15T16:10:53.675Z,16.90
2022-10-15T16:13:21.834Z,16.80
2022-10-15T16:15:49.920Z,16.90
2022-10-15T16:18:17.959Z,16.80
2022-10-15T16:20:48.573Z,16.80
2022-10-15T16:23:17.487Z,16.90
2022-10-15T16:25:47.040Z,16.80
2022-10-15T16:28:15.120Z,16.90
2022-10-15T16:30:43.213Z,16.80
2022-10-15T16:33:11.340Z,16.80
2022-10-15T16:35:39.395Z,16.80
2022-10-15T16:38:07.624Z,16.80
2022-10-15T16:40:36.403Z,16.70
2022-10-15T16:43:05.850Z,16.70
2022-10-15T16:45:33.923Z,16.70
2022-10-15T16:48:02.019Z,16.60
2022-10-15T16:50:30.079Z,16.70
2022-10-15T16:52:58.162Z,16.50
2022-10-15T16:55:26.236Z,16.60
2022-10-15T16:57:54.231Z,16.60
2022-10-15T17:00:23.578Z,16.50
2022-10-15T17:02:52.386Z,16.50
2022-10-15T17:05:20.418Z,16.40
2022-10-15T17:07:48.445Z,16.50
2022-10-15T17:10:16.606Z,16.30
2022-10-15T17:12:44.710Z,16.20
2022-10-15T17:15:12.989Z,16.10
2022-10-15T17:17:43.311Z,16.00
2022-10-15T17:20:12.750Z,15.90
2022-10-15T17:22:40.872Z,15.90
2022-10-15T17:25:09.325Z,15.90
2022-10-15T17:27:37.374Z,15.80
2022-10-15T17:30:06.407Z,15.80
2022-10-15T17:32:34.728Z,15.80
2022-10-15T17:35:05.063Z,15.70
2022-10-15T17:40:07.136Z,15.40
2022-10-15T17:42:36.692Z,15.40
2022-10-15T17:45:05.398Z,15.40
2022-10-15T17:47:33.485Z,15.30
2022-10-15T17:50:02.885Z,15.30
2022-10-15T17:52:31.177Z,15.20
2022-10-15T17:54:59.270Z,15.10
2022-10-15T17:57:28.391Z,15.10
2022-10-15T17:59:56.717Z,15.10
2022-10-15T18:02:24.802Z,15.00
2022-10-15T18:04:53.137Z,15.10
2022-10-15T18:07:22.860Z,15.00
2022-10-15T18:09:51.183Z,15.10
2022-10-15T18:12:19.255Z,15.10
2022-10-15T18:14:47.298Z,14.90
2022-10-15T18:17:19.775Z,15.30
2022-10-15T18:19:47.863Z,15.50
2022-10-15T18:22:16.229Z,15.50
2022-10-15T18:24:45.706Z,15.40
2022-10-15T18:27:13.736Z,15.30
2022-10-15T18:29:42.869Z,15.50
2022-10-15T18:32:10.858Z,15.40
2022-10-15T18:34:38.896Z,15.30
2022-10-15T18:37:07.283Z,15.20
2022-10-15T18:39:35.410Z,15.20
2022-10-15T18:42:05.316Z,15.10
2022-10-15T18:44:34.187Z,15.00
2022-10-15T18:47:02.322Z,14.90
2022-10-15T18:49:30.467Z,14.90
2022-10-15T18:52:02.979Z,14.90
2022-10-15T18:54:39.131Z,14.80
2022-10-15T18:57:08.589Z,14.80
2022-10-15T18:59:36.714Z,14.80
2022-10-15T19:02:05.238Z,15.00
2022-10-15T19:04:34.167Z,15.10
2022-10-15T19:07:04.526Z,15.10
2022-10-15T19:09:34.554Z,15.10
2022-10-15T19:12:02.686Z,15.00
2022-10-15T19:14:32.278Z,15.00
2022-10-15T19:17:00.367Z,14.90
2022-10-15T19:19:29.809Z,14.90
2022-10-15T19:21:58.427Z,14.90
2022-10-15T19:24:26.467Z,15.10
2022-10-15T19:26:54.674Z,15.10
2022-10-15T19:29:22.938Z,15.30
2022-10-15T19:31:55.754Z,15.30
2022-10-15T19:34:23.997Z,15.50
2022-10-15T19:36:52.278Z,15.40
2022-10-15T19:39:25.030Z,15.50
2022-10-15T19:41:53.659Z,15.40
2022-10-15T19:44:25.658Z,15.40
2022-10-15T19:46:55.927Z,15.20
2022-10-15T19:49:25.129Z,15.10
2022-10-15T19:51:53.645Z,15.00
2022-10-15T19:54:21.789Z,15.00
2022-10-15T19:56:49.993Z,15.00
2022-10-15T19:59:18.278Z,14.90
2022-10-15T20:01:46.408Z,15.00
2022-10-15T20:04:15.936Z,14.90
2022-10-15T20:06:44.077Z,14.80
2022-10-15T20:09:12.247Z,14.90
2022-10-15T20:11:40.196Z,15.00
2022-10-15T20:14:08.301Z,15.00
2022-10-15T20:16:36.562Z,14.90
2022-10-15T20:19:05.709Z,14.90
2022-10-15T20:21:35.182Z,14.80
2022-10-15T20:24:04.647Z,14.80
2022-10-15T20:26:33.327Z,14.70
2022-10-15T20:29:01.495Z,14.70
2022-10-15T20:31:32.784Z,14.80
2022-10-15T20:34:01.919Z,14.80
2022-10-15T20:36:30.538Z,14.80
2022-10-15T20:39:01.431Z,14.70
2022-10-15T20:41:29.898Z,14.80
2022-10-15T20:43:58.426Z,14.80
2022-10-15T20:46:30.930Z,14.70
2022-10-15T20:49:07.820Z,14.80
2022-10-15T20:51:38.303Z,14.60
2022-10-15T20:54:08.104Z,14.60
2022-10-15T20:56:36.321Z,14.40
2022-10-15T20:59:05.040Z,14.50
2022-10-15T21:01:33.263Z,14.30
2022-10-15T21:04:01.479Z,14.40
2022-10-15T21:06:29.942Z,14.30
2022-10-15T21:08:58.179Z,14.30
2022-10-15T21:11:27.614Z,14.30
2022-10-15T21:13:55.960Z,14.20
2022-10-15T21:16:27.402Z,14.10
2022-10-15T21:18:56.623Z,14.20
2022-10-15T21:21:24.942Z,14.20
2022-10-15T21:23:53.343Z,14.20
2022-10-15T21:26:21.949Z,14.20
2022-10-15T21:28:54.963Z,14.20
2022-10-15T21:31:23.234Z,14.00
2022-10-15T21:33:51.642Z,14.10
2022-10-15T21:36:22.086Z,13.90
2022-10-15T21:38:52.896Z,13.90
2022-10-15T21:41:21.329Z,13.80
2022-10-15T21:46:24.302Z,13.80
2022-10-15T21:48:53.429Z,13.70
2022-10-15T21:51:23.900Z,13.70
2022-10-15T21:53:52.201Z,13.60
2022-10-15T21:56:20.826Z,13.40
2022-10-15T21:58:49.156Z,13.40
2022-10-15T22:01:20.781Z,13.50
2022-10-15T22:03:49.970Z,13.40
2022-10-15T22:06:19.073Z,13.40
2022-10-15T22:08:48.375Z,13.50
2022-10-15T22:11:18.328Z,13.40
2022-10-15T22:13:47.979Z,13.10
2022-10-15T22:16:18.426Z,13.10
2022-10-15T22:18:46.841Z,13.00
2022-10-15T22:21:17.262Z,13.10
2022-10-15T22:23:46.194Z,13.00
2022-10-15T22:26:14.783Z,12.90
2022-10-15T22:28:43.303Z,12.90
2022-10-15T22:31:13.339Z,13.10
2022-10-15T22:33:43.640Z,13.00
2022-10-15T22:36:15.343Z,12.90
2022-10-15T22:38:45.229Z,12.80
2022-10-15T22:41:13.454Z,12.70
2022-10-15T22:43:42.161Z,12.60
2022-10-15T22:46:10.584Z,12.50
2022-10-15T22:48:40.652Z,12.40
2022-10-15T22:51:12.568Z,12.40
2022-10-15T22:53:40.746Z,12.50
2022-10-15T22:56:11.394Z,12.40
2022-10-15T22:58:39.560Z,12.40
2022-10-15T23:01:09.741Z,12.30
2022-10-15T23:03:38.367Z,12.10
2022-10-15T23:06:07.183Z,12.10
2022-10-15T23:08:36.986Z,12.10
2022-10-15T23:11:10.229Z,12.00
2022-10-15T23:13:38.833Z,12.20
2022-10-15T23:16:09.170Z,12.20
2022-10-15T23:18:37.810Z,12.30
2022-10-15T23:21:07.412Z,12.20
2022-10-15T23:23:36.811Z,12.10
2022-10-15T23:26:04.850Z,12.20
2022-10-15T23:28:33.004Z,12.20
2022-10-15T23:31:01.147Z,12.00
2022-10-15T23:33:29.254Z,11.90
2022-10-15T23:35:59.191Z,11.80
2022-10-15T23:38:28.119Z,11.70
2022-10-15T23:41:08.278Z,11.70
2022-10-15T23:43:36.292Z,11.60
2022-10-15T23:46:04.990Z,11.50
2022-10-15T23:48:33.037Z,11.30
2022-10-15T23:51:03.702Z,11.30
2022-10-15T23:53:33.649Z,11.20
2022-10-15T23:56:03.570Z,11.30
2022-10-15T23:58:33.053Z,11.20
